Time;durP1;ratioP1;P1;durP2;ratioP2;P2;SDS_P1;SDS_P2;PMS_P1;PMS_P2;Temp;Humidity;BMP_temperature;BMP_pressure;BME280_temperature;BME280_humidity;BME280_pressure;Samples;Min_cycle;Max_cycle;Signal;HPM_P1;HPM_P2
2023/09/27 00:03:08;;;;;;;111.15;34.00;;;;;;;;;;10366493;22;20024;-87
2023/09/27 00:07:11;;;;;;;111.55;32.30;;;;;;;;;;10379696;23;20044;-88
2023/09/27 00:11:14;;;;;;;100.15;29.73;;;;;;;;;;10372126;22;20337;-89
2023/09/27 00:15:17;;;;;;;105.35;32.13;;;;;;;;;;10345639;23;20046;-90
2023/09/27 00:19:21;;;;;;;101.10;32.47;;;;;;;;;;10344022;23;20023;-90
2023/09/27 00:23:26;;;;;;;107.95;34.00;;;;;;;;;;10336927;23;20376;-90
2023/09/27 00:27:32;;;;;;;98.93;30.80;;;;;;;;;;10336815;22;20020;-91
2023/09/27 00:31:34;;;;;;;96.47;29.95;;;;;;;;;;10336724;23;20031;-90
2023/09/27 00:35:39;;;;;;;94.32;29.70;;;;;;;;;;10336703;23;20558;-90
2023/09/27 00:39:42;;;;;;;95.32;27.83;;;;;;;;;;10336488;23;20405;-90
2023/09/27 00:43:44;;;;;;;103.78;30.05;;;;;;;;;;10336859;23;20016;-90
2023/09/27 00:47:48;;;;;;;94.35;29.52;;;;;;;;;;10336264;22;20074;-90
2023/09/27 00:51:52;;;;;;;100.68;30.40;;;;;;;;;;10336611;23;20020;-90
2023/09/27 00:55:56;;;;;;;107.25;31.65;;;;;;;;;;10336403;23;20052;-90
2023/09/27 01:00:00;;;;;;;101.78;28.58;;;;;;;;;;10336391;22;20020;-89
2023/09/27 01:04:03;;;;;;;99.18;29.67;;;;;;;;;;10309362;23;20031;-90
2023/09/27 01:08:08;;;;;;;96.07;28.80;;;;;;;;;;10336536;23;20091;-90
2023/09/27 01:12:11;;;;;;;103.78;28.48;;;;;;;;;;10337063;23;20747;-90
2023/09/27 01:16:13;;;;;;;87.80;28.35;;;;;;;;;;10311072;23;20028;-89
2023/09/27 01:20:16;;;;;;;100.35;29.17;;;;;;;;;;10339714;23;20091;-90
2023/09/27 01:24:21;;;;;;;91.55;26.33;;;;;;;;;;10339803;22;20475;-89
2023/09/27 01:28:24;;;;;;;97.82;30.90;;;;;;;;;;10339492;23;20051;-89
2023/09/27 01:32:27;;;;;;;94.05;29.15;;;;;;;;;;10339537;23;20046;-90
2023/09/27 01:36:30;;;;;;;106.35;31.08;;;;;;;;;;10339537;22;20043;-90
2023/09/27 01:40:36;;;;;;;91.50;28.77;;;;;;;;;;10339338;22;20020;-89
2023/09/27 01:44:39;;;;;;;99.07;29.55;;;;;;;;;;10356037;23;20027;-90
2023/09/27 01:48:42;;;;;;;99.65;30.52;;;;;;;;;;10339318;23;20052;-90
2023/09/27 01:52:45;;;;;;;91.40;29.15;;;;;;;;;;10337057;22;20091;-90
2023/09/27 01:56:49;;;;;;;98.97;29.85;;;;;;;;;;10339144;23;20342;-89
2023/09/27 02:00:51;;;;;;;101.18;28.20;;;;;;;;;;10338030;23;20016;-90
2023/09/27 02:04:55;;;;;;;98.32;30.27;;;;;;;;;;10338623;23;20016;-89
2023/09/27 02:08:57;;;;;;;91.22;26.08;;;;;;;;;;10338438;22;20099;-89
2023/09/27 02:13:01;;;;;;;108.50;29.95;;;;;;;;;;10338702;22;20087;-90
2023/09/27 02:17:04;;;;;;;100.78;29.98;;;;;;;;;;10338128;23;20040;-90
2023/09/27 02:21:07;;;;;;;100.43;29.20;;;;;;;;;;10337865;23;20016;-89
2023/09/27 02:25:12;;;;;;;106.70;31.30;;;;;;;;;;10337786;23;20326;-90
2023/09/27 02:29:16;;;;;;;152.05;51.75;;;;;;;;;;10337926;23;20023;-89
2023/09/27 02:33:20;;;;;;;135.68;48.03;;;;;;;;;;10337396;23;20605;-91
2023/09/27 02:37:23;;;;;;;99.38;31.98;;;;;;;;;;10337556;23;20087;-90
2023/09/27 02:41:26;;;;;;;94.60;31.65;;;;;;;;;;10338356;23;20483;-91
2023/09/27 02:45:30;;;;;;;103.80;30.70;;;;;;;;;;10337769;22;20851;-91
2023/09/27 02:49:35;;;;;;;93.07;28.40;;;;;;;;;;10354419;23;20020;-91
2023/09/27 02:53:38;;;;;;;109.75;33.80;;;;;;;;;;10337994;23;20012;-91
2023/09/27 02:57:42;;;;;;;103.43;35.95;;;;;;;;;;10338214;23;20096;-91
2023/09/27 03:01:46;;;;;;;92.97;29.55;;;;;;;;;;10338019;22;20508;-90
2023/09/27 03:05:49;;;;;;;89.75;30.25;;;;;;;;;;10338219;23;20019;-90
2023/09/27 03:09:53;;;;;;;78.00;28.02;;;;;;;;;;10337992;23;20146;-90
2023/09/27 03:13:56;;;;;;;100.32;30.30;;;;;;;;;;10337971;23;20553;-90
2023/09/27 03:18:00;;;;;;;101.20;31.13;;;;;;;;;;10337833;23;20096;-91
2023/09/27 03:22:03;;;;;;;102.60;30.52;;;;;;;;;;10337772;22;20147;-90
2023/09/27 03:26:05;;;;;;;86.78;27.33;;;;;;;;;;10310765;23;20369;-90
2023/09/27 03:30:10;;;;;;;88.57;26.45;;;;;;;;;;10338401;22;20441;-90
2023/09/27 03:38:54;;;;;;;93.68;29.35;;;;;;;;;;10350700;23;20020;-89
2023/09/27 03:43:25;;;;;;;103.20;29.65;;;;;;;;;;10349533;22;20016;-90
2023/09/27 03:47:31;;;;;;;97.50;28.75;;;;;;;;;;10368939;23;20024;-89
2023/09/27 03:51:35;;;;;;;92.18;28.83;;;;;;;;;;10366029;23;20022;-89
2023/09/27 03:55:38;;;;;;;93.55;29.77;;;;;;;;;;10339749;22;20027;-89
2023/09/27 03:59:41;;;;;;;99.40;27.50;;;;;;;;;;10338448;23;20520;-89
2023/09/27 04:03:44;;;;;;;91.60;28.05;;;;;;;;;;10338026;23;20077;-89
2023/09/27 04:07:48;;;;;;;88.00;27.92;;;;;;;;;;10337893;23;20023;-89
2023/09/27 04:11:51;;;;;;;106.35;29.10;;;;;;;;;;10336602;22;20023;-88
2023/09/27 04:15:54;;;;;;;106.95;30.30;;;;;;;;;;10336461;23;20027;-89
2023/09/27 04:19:57;;;;;;;87.72;27.98;;;;;;;;;;10337000;22;20491;-89
2023/09/27 04:24:03;;;;;;;91.03;27.63;;;;;;;;;;10336885;23;20027;-89
2023/09/27 04:28:06;;;;;;;97.70;28.50;;;;;;;;;;10353375;23;20027;-90
2023/09/27 04:32:09;;;;;;;95.05;29.48;;;;;;;;;;10336667;22;20023;-90
2023/09/27 04:36:15;;;;;;;87.22;28.33;;;;;;;;;;10309551;23;20524;-89
2023/09/27 04:40:20;;;;;;;85.38;26.50;;;;;;;;;;10353446;23;20023;-89
2023/09/27 04:44:26;;;;;;;92.47;25.73;;;;;;;;;;10336518;22;20020;-89
2023/09/27 04:48:29;;;;;;;95.25;27.95;;;;;;;;;;10297086;23;20024;-91
2023/09/27 04:52:32;;;;;;;92.93;29.20;;;;;;;;;;10285894;23;20021;-90
2023/09/27 04:56:36;;;;;;;97.53;29.02;;;;;;;;;;10286193;23;20470;-91
2023/09/27 05:00:39;;;;;;;88.03;27.10;;;;;;;;;;10286068;23;20100;-91
2023/09/27 05:04:42;;;;;;;95.00;29.50;;;;;;;;;;10286576;23;20479;-91
2023/09/27 05:08:44;;;;;;;101.72;30.10;;;;;;;;;;10285978;23;20024;-91
2023/09/27 05:12:49;;;;;;;92.28;28.38;;;;;;;;;;10286184;23;20027;-90
2023/09/27 05:16:52;;;;;;;109.28;31.60;;;;;;;;;;10285965;23;20092;-90
2023/09/27 05:20:55;;;;;;;105.32;30.15;;;;;;;;;;10286483;23;20025;-91
2023/09/27 05:24:58;;;;;;;106.55;32.15;;;;;;;;;;10286104;23;20092;-91
2023/09/27 05:29:04;;;;;;;114.57;35.55;;;;;;;;;;10285889;23;20026;-90
2023/09/27 05:33:07;;;;;;;91.63;27.15;;;;;;;;;;10301022;23;20120;-91
2023/09/27 05:37:10;;;;;;;97.78;31.27;;;;;;;;;;10284941;23;20013;-91
2023/09/27 05:41:13;;;;;;;100.07;29.23;;;;;;;;;;10285017;23;20044;-91
2023/09/27 05:45:18;;;;;;;131.50;46.78;;;;;;;;;;10284247;23;20020;-91
2023/09/27 05:49:21;;;;;;;120.82;50.75;;;;;;;;;;10335624;23;20016;-91
2023/09/27 05:53:24;;;;;;;96.68;38.33;;;;;;;;;;10335847;22;20020;-91
2023/09/27 05:57:27;;;;;;;66.47;27.33;;;;;;;;;;10336007;23;20027;-90
2023/09/27 06:01:31;;;;;;;58.47;22.92;;;;;;;;;;10336989;22;20023;-89
2023/09/27 06:05:35;;;;;;;47.35;24.17;;;;;;;;;;10338469;22;20494;-90
2023/09/27 06:09:38;;;;;;;46.35;19.88;;;;;;;;;;10339058;23;20047;-91
2023/09/27 06:13:40;;;;;;;27.10;14.90;;;;;;;;;;10336919;22;20104;-93
2023/09/27 06:17:45;;;;;;;35.05;15.10;;;;;;;;;;10345732;22;20020;-91
2023/09/27 06:21:48;;;;;;;26.33;13.40;;;;;;;;;;10373329;23;20024;-91
2023/09/27 06:25:51;;;;;;;21.05;11.00;;;;;;;;;;10377186;22;20016;-87
2023/09/27 06:29:54;;;;;;;24.23;11.15;;;;;;;;;;10356052;22;20047;-91
2023/09/27 06:34:00;;;;;;;17.33;9.57;;;;;;;;;;10354354;22;20012;-91
2023/09/27 06:38:03;;;;;;;18.20;9.88;;;;;;;;;;10355589;23;20043;-91
2023/09/27 06:42:07;;;;;;;15.63;9.45;;;;;;;;;;10339308;23;20329;-91
2023/09/27 06:46:11;;;;;;;15.18;9.25;;;;;;;;;;10327793;22;20024;-93
2023/09/27 06:50:16;;;;;;;15.15;9.07;;;;;;;;;;10286772;23;20048;-91
2023/09/27 06:54:21;;;;;;;14.18;9.00;;;;;;;;;;10302088;23;20024;-92
2023/09/27 06:58:25;;;;;;;19.92;17.83;;;;;;;;;;10303178;23;20480;-91
2023/09/27 07:02:42;;;;;;;14.10;8.50;;;;;;;;;;10288654;23;20012;-93
2023/09/27 07:06:48;;;;;;;16.20;8.85;;;;;;;;;;10313658;23;20112;-92
2023/09/27 07:11:05;;;;;;;12.52;8.30;;;;;;;;;;10288354;23;20016;-92
2023/09/27 07:15:29;;;;;;;18.50;8.82;;;;;;;;;;10304424;23;20461;-91
2023/09/27 07:19:38;;;;;;;19.50;8.95;;;;;;;;;;10309448;23;20524;-93
2023/09/27 07:23:45;;;;;;;15.20;10.00;;;;;;;;;;10309973;23;20024;-93
2023/09/27 07:28:02;;;;;;;13.27;10.32;;;;;;;;;;10308202;23;20080;-93
2023/09/27 07:32:12;;;;;;;18.10;10.63;;;;;;;;;;10306320;23;20091;-93
2023/09/27 07:36:16;;;;;;;12.52;8.68;;;;;;;;;;10304386;23;20020;-92
2023/09/27 07:40:21;;;;;;;11.35;8.35;;;;;;;;;;10286465;23;20100;-94
2023/09/27 07:44:27;;;;;;;18.23;13.18;;;;;;;;;;10304940;23;20445;-94
2023/09/27 07:48:32;;;;;;;13.00;7.97;;;;;;;;;;10334731;23;20444;-93
2023/09/27 07:52:37;;;;;;;11.05;7.88;;;;;;;;;;10339379;22;20020;-94
2023/09/27 07:56:45;;;;;;;13.77;8.63;;;;;;;;;;10314651;23;20034;-94
2023/09/27 08:00:49;;;;;;;11.80;8.52;;;;;;;;;;10315237;23;20348;-94
2023/09/27 08:04:52;;;;;;;14.18;8.23;;;;;;;;;;10313503;23;20111;-93
2023/09/27 08:08:57;;;;;;;12.95;7.57;;;;;;;;;;10314448;23;20052;-94
2023/09/27 08:13:02;;;;;;;15.52;8.43;;;;;;;;;;10354759;23;20044;-92
2023/09/27 08:17:05;;;;;;;14.60;7.82;;;;;;;;;;10338435;23;20078;-92
2023/09/27 08:21:08;;;;;;;13.10;7.65;;;;;;;;;;10338405;22;20104;-95
2023/09/27 08:25:14;;;;;;;11.88;7.15;;;;;;;;;;10338182;22;20016;-93
2023/09/27 08:29:48;;;;;;;10.35;7.13;;;;;;;;;;10361788;23;20023;-95
2023/09/27 08:33:51;;;;;;;12.18;7.50;;;;;;;;;;10349934;22;20020;-93
2023/09/27 08:38:01;;;;;;;15.55;7.75;;;;;;;;;;10396817;22;20042;-95
2023/09/27 08:42:06;;;;;;;15.70;7.50;;;;;;;;;;10468845;22;20023;-95
2023/09/27 08:46:15;;;;;;;13.40;7.60;;;;;;;;;;10452677;22;20027;-93
2023/09/27 08:50:34;;;;;;;12.07;7.72;;;;;;;;;;10462261;22;20076;-94
2023/09/27 08:59:33;;;;;;;13.48;7.68;;;;;;;;;;10444427;22;20019;-96
2023/09/27 09:03:46;;;;;;;12.00;7.65;;;;;;;;;;10447691;22;20035;-94
2023/09/27 09:08:04;;;;;;;14.27;7.32;;;;;;;;;;10462451;22;20015;-94
2023/09/27 09:12:12;;;;;;;10.68;7.50;;;;;;;;;;10459570;22;20015;-95
2023/09/27 09:16:23;;;;;;;10.73;7.53;;;;;;;;;;10466581;22;20019;-95
2023/09/27 09:20:32;;;;;;;11.38;7.10;;;;;;;;;;10457449;22;20019;-92
2023/09/27 09:24:36;;;;;;;12.15;7.35;;;;;;;;;;10456658;22;20052;-95
2023/09/27 09:28:56;;;;;;;13.73;7.53;;;;;;;;;;10437903;22;20016;-94
2023/09/27 09:33:46;;;;;;;11.48;7.22;;;;;;;;;;10406455;22;20027;-94
2023/09/27 09:37:51;;;;;;;13.05;6.82;;;;;;;;;;10231909;23;20036;-93
2023/09/27 09:41:58;;;;;;;8.20;6.18;;;;;;;;;;10347104;22;20027;-92
2023/09/27 09:46:03;;;;;;;12.10;6.88;;;;;;;;;;10454847;22;20015;-92
2023/09/27 09:50:16;;;;;;;11.82;6.93;;;;;;;;;;10435159;22;20030;-92
2023/09/27 09:54:41;;;;;;;14.68;6.32;;;;;;;;;;10462666;22;20030;-95
2023/09/27 09:59:03;;;;;;;13.45;6.35;;;;;;;;;;10363617;22;20172;-95
2023/09/27 10:03:09;;;;;;;10.82;6.10;;;;;;;;;;10440858;22;20068;-93
2023/09/27 10:07:18;;;;;;;12.45;6.22;;;;;;;;;;10455185;22;20056;-93
2023/09/27 10:26:22;;;;;;;12.00;7.40;;;;;;;;;;10432334;22;20046;-96
2023/09/27 10:30:26;;;;;;;10.40;7.18;;;;;;;;;;10437811;22;20023;-92
2023/09/27 10:34:42;;;;;;;12.25;7.68;;;;;;;;;;10439561;22;20044;-94
2023/09/27 10:39:03;;;;;;;11.88;6.93;;;;;;;;;;10440728;22;20027;-93
2023/09/27 10:43:42;;;;;;;14.98;7.20;;;;;;;;;;10437561;22;20097;-94
2023/09/27 10:47:49;;;;;;;9.32;6.50;;;;;;;;;;10454412;22;20026;-95
2023/09/27 10:51:53;;;;;;;10.68;6.85;;;;;;;;;;10452082;22;20435;-95
2023/09/27 10:55:59;;;;;;;15.70;6.70;;;;;;;;;;10437576;22;20042;-94
2023/09/27 11:00:11;;;;;;;11.98;7.00;;;;;;;;;;10452631;22;20015;-94
2023/09/27 11:04:15;;;;;;;12.00;6.97;;;;;;;;;;10453758;22;20026;-95
2023/09/27 11:08:23;;;;;;;13.73;7.38;;;;;;;;;;10438416;22;20074;-96
2023/09/27 11:12:27;;;;;;;14.23;7.40;;;;;;;;;;10454695;22;20104;-95
2023/09/27 11:21:09;;;;;;;15.38;7.65;;;;;;;;;;10389979;22;20030;-93
2023/09/27 11:25:27;;;;;;;10.73;6.65;;;;;;;;;;10452163;22;20030;-93
2023/09/27 11:29:52;;;;;;;12.07;6.63;;;;;;;;;;10418137;22;20027;-93
2023/09/27 11:34:15;;;;;;;14.00;7.22;;;;;;;;;;10463387;22;20022;-94
2023/09/27 11:38:18;;;;;;;11.18;6.38;;;;;;;;;;10460176;22;20019;-94
2023/09/27 11:42:25;;;;;;;14.05;6.00;;;;;;;;;;10445769;22;20096;-95
2023/09/27 11:46:28;;;;;;;14.10;5.63;;;;;;;;;;10436995;22;20088;-95
2023/09/27 11:50:33;;;;;;;10.45;5.97;;;;;;;;;;10444104;22;20023;-95
2023/09/27 11:54:42;;;;;;;11.88;5.80;;;;;;;;;;10439595;22;20085;-93
2023/09/27 11:59:00;;;;;;;12.57;5.40;;;;;;;;;;10420544;22;20022;-90
2023/09/27 12:03:18;;;;;;;9.35;5.97;;;;;;;;;;10415853;22;20019;-96
2023/09/27 12:07:36;;;;;;;10.27;5.63;;;;;;;;;;10442712;22;20019;-92
2023/09/27 12:16:04;;;;;;;15.98;6.20;;;;;;;;;;10446798;22;20054;-95
2023/09/27 12:20:09;;;;;;;9.85;6.22;;;;;;;;;;10471113;22;20071;-95
2023/09/27 12:24:20;;;;;;;13.48;6.20;;;;;;;;;;10482297;22;20034;-93
2023/09/27 12:28:23;;;;;;;12.82;6.57;;;;;;;;;;10484003;22;20019;-91
2023/09/27 12:32:26;;;;;;;11.00;6.72;;;;;;;;;;10477837;22;20049;-92
2023/09/27 12:36:30;;;;;;;13.63;6.70;;;;;;;;;;10477307;22;20019;-92
2023/09/27 12:40:38;;;;;;;11.68;6.40;;;;;;;;;;10461704;22;20019;-93
2023/09/27 12:44:46;;;;;;;10.63;6.60;;;;;;;;;;10429800;22;20023;-96
2023/09/27 12:48:52;;;;;;;11.68;6.78;;;;;;;;;;10470579;22;20011;-93
2023/09/27 12:52:55;;;;;;;14.10;6.47;;;;;;;;;;10451605;22;20386;-95
2023/09/27 12:57:00;;;;;;;16.52;6.68;;;;;;;;;;10452434;22;20019;-96
2023/09/27 13:01:04;;;;;;;9.88;6.50;;;;;;;;;;10450725;22;20037;-96
2023/09/27 13:05:08;;;;;;;16.17;7.13;;;;;;;;;;10451432;22;20019;-95
2023/09/27 13:09:11;;;;;;;12.38;6.55;;;;;;;;;;10457296;22;20015;-96
2023/09/27 13:13:23;;;;;;;11.50;5.85;;;;;;;;;;10478384;22;20038;-96
2023/09/27 13:17:27;;;;;;;;;;;;;;;;;;10464647;22;20015;-92
2023/09/27 13:21:30;;;;;;;9.75;5.75;;;;;;;;;;10450609;22;19946;-96
2023/09/27 13:25:36;;;;;;;12.55;6.13;;;;;;;;;;10464567;22;20023;-96
2023/09/27 13:29:43;;;;;;;10.88;5.85;;;;;;;;;;10464456;22;20473;-95
2023/09/27 13:33:47;;;;;;;8.45;5.18;;;;;;;;;;10474504;22;20050;-94
2023/09/27 13:37:54;;;;;;;7.97;5.50;;;;;;;;;;10462741;22;20023;-94
2023/09/27 13:41:58;;;;;;;10.50;5.47;;;;;;;;;;10478379;22;20015;-96
2023/09/27 13:46:45;;;;;;;10.18;5.40;;;;;;;;;;10454896;22;20101;-96
2023/09/27 13:50:49;;;;;;;11.30;5.65;;;;;;;;;;10431053;22;20027;-95
2023/09/27 13:54:52;;;;;;;14.65;5.45;;;;;;;;;;10455475;22;20011;-92
2023/09/27 13:59:03;;;;;;;9.18;5.60;;;;;;;;;;10481247;22;20383;-91
2023/09/27 14:03:13;;;;;;;9.52;5.55;;;;;;;;;;10468675;22;20026;-92
2023/09/27 14:07:16;;;;;;;8.70;5.45;;;;;;;;;;10468093;22;20026;-92
2023/09/27 14:11:23;;;;;;;10.88;5.40;;;;;;;;;;10456707;22;20030;-92
2023/09/27 14:15:33;;;;;;;10.30;4.95;;;;;;;;;;10461304;22;20297;-95
2023/09/27 14:19:45;;;;;;;8.80;5.10;;;;;;;;;;10448659;22;20473;-96
2023/09/27 14:23:48;;;;;;;7.65;4.80;;;;;;;;;;10457885;22;20393;-93
2023/09/27 14:27:52;;;;;;;9.90;5.30;;;;;;;;;;10462525;22;20019;-93
2023/09/27 14:32:00;;;;;;;12.55;5.72;;;;;;;;;;10445790;22;20015;-92
2023/09/27 14:36:07;;;;;;;10.27;5.57;;;;;;;;;;10466989;22;20026;-91
2023/09/27 14:40:18;;;;;;;8.85;5.38;;;;;;;;;;10443563;22;20019;-91
2023/09/27 14:44:22;;;;;;;10.50;5.00;;;;;;;;;;10395061;22;20034;-91
2023/09/27 14:48:27;;;;;;;13.90;4.88;;;;;;;;;;10454884;22;20019;-92
2023/09/27 14:52:33;;;;;;;11.00;5.65;;;;;;;;;;10371143;22;20349;-92
2023/09/27 14:56:40;;;;;;;9.82;5.20;;;;;;;;;;10440321;22;20020;-90
2023/09/27 15:00:52;;;;;;;7.65;4.80;;;;;;;;;;10446968;22;20023;-91
2023/09/27 15:04:57;;;;;;;13.27;5.82;;;;;;;;;;10474300;22;20037;-91
2023/09/27 15:09:08;;;;;;;11.82;5.13;;;;;;;;;;10464803;22;20019;-95
2023/09/27 15:13:13;;;;;;;13.70;5.75;;;;;;;;;;10480608;22;20019;-91
2023/09/27 15:17:19;;;;;;;14.07;5.90;;;;;;;;;;10475413;22;20050;-92
2023/09/27 15:21:22;;;;;;;9.55;5.43;;;;;;;;;;10444509;22;20019;-94
2023/09/27 15:25:27;;;;;;;15.35;6.00;;;;;;;;;;10449542;22;20020;-90
2023/09/27 15:29:31;;;;;;;12.45;5.72;;;;;;;;;;10449781;22;20075;-95
2023/09/27 15:33:35;;;;;;;10.90;6.07;;;;;;;;;;10449964;22;20355;-92
2023/09/27 15:37:49;;;;;;;9.38;6.63;;;;;;;;;;10450223;22;20072;-94
2023/09/27 15:41:55;;;;;;;16.55;7.50;;;;;;;;;;10463769;22;20019;-91
2023/09/27 15:45:59;;;;;;;12.82;7.45;;;;;;;;;;10461024;22;20019;-91
2023/09/27 15:50:08;;;;;;;18.70;8.35;;;;;;;;;;10443402;22;20015;-92
2023/09/27 15:54:12;;;;;;;14.82;8.43;;;;;;;;;;10460500;22;20347;-94
2023/09/27 15:58:16;;;;;;;23.90;15.73;;;;;;;;;;10443399;22;20019;-92
2023/09/27 16:02:19;;;;;;;24.25;13.50;;;;;;;;;;10440842;22;20042;-90
2023/09/27 16:06:22;;;;;;;25.10;16.38;;;;;;;;;;10440506;22;20016;-92
2023/09/27 16:10:25;;;;;;;28.13;17.58;;;;;;;;;;10437474;22;20058;-92
2023/09/27 16:14:32;;;;;;;30.23;15.85;;;;;;;;;;10436621;22;20060;-91
2023/09/27 16:18:36;;;;;;;18.63;10.40;;;;;;;;;;10437548;22;20019;-92
2023/09/27 16:22:39;;;;;;;15.30;8.27;;;;;;;;;;10434377;22;20344;-89
2023/09/27 16:26:42;;;;;;;13.85;8.90;;;;;;;;;;10429492;22;20023;-93
2023/09/27 16:30:47;;;;;;;11.18;8.93;;;;;;;;;;10433707;22;20019;-95
2023/09/27 16:34:50;;;;;;;11.93;8.68;;;;;;;;;;10435350;22;20347;-95
2023/09/27 16:38:53;;;;;;;13.88;8.43;;;;;;;;;;10434119;22;20015;-94
2023/09/27 16:42:56;;;;;;;16.88;9.25;;;;;;;;;;10436837;22;20026;-93
2023/09/27 16:47:01;;;;;;;19.83;12.45;;;;;;;;;;10436971;22;20462;-91
2023/09/27 16:51:04;;;;;;;17.85;10.63;;;;;;;;;;10436671;22;20026;-91
2023/09/27 16:55:08;;;;;;;17.13;11.27;;;;;;;;;;10436322;22;20019;-95
2023/09/27 16:59:13;;;;;;;17.95;10.35;;;;;;;;;;10434396;22;20019;-94
2023/09/27 17:03:20;;;;;;;16.70;10.95;;;;;;;;;;10433220;22;20068;-92
2023/09/27 17:07:24;;;;;;;15.48;10.32;;;;;;;;;;10449864;22;20048;-90
2023/09/27 17:11:28;;;;;;;19.70;10.80;;;;;;;;;;10434205;22;20090;-90
2023/09/27 17:15:32;;;;;;;16.65;10.73;;;;;;;;;;10435008;22;20099;-93
2023/09/27 17:19:39;;;;;;;15.32;9.93;;;;;;;;;;10435222;22;20077;-91
2023/09/27 17:23:44;;;;;;;16.83;10.75;;;;;;;;;;10450882;22;20039;-90
2023/09/27 17:27:48;;;;;;;19.77;11.75;;;;;;;;;;10451692;22;20027;-92
2023/09/27 17:31:55;;;;;;;23.33;13.32;;;;;;;;;;10433428;22;20019;-91
2023/09/27 17:36:07;;;;;;;20.48;13.32;;;;;;;;;;10449704;22;20551;-93
2023/09/27 17:40:14;;;;;;;18.17;12.23;;;;;;;;;;10459473;22;20015;-90
2023/09/27 17:44:19;;;;;;;23.60;13.82;;;;;;;;;;10467743;22;20015;-94
2023/09/27 17:48:23;;;;;;;25.75;13.80;;;;;;;;;;10438524;22;20026;-93
2023/09/27 17:52:29;;;;;;;22.63;14.50;;;;;;;;;;10439144;22;20073;-93
2023/09/27 17:56:40;;;;;;;30.20;15.70;;;;;;;;;;10455841;22;20020;-90
2023/09/27 18:00:54;;;;;;;21.27;13.20;;;;;;;;;;10465214;22;20019;-90
2023/09/27 18:05:07;;;;;;;24.45;14.70;;;;;;;;;;10460956;22;20015;-94
2023/09/27 18:09:40;;;;;;;22.58;15.07;;;;;;;;;;10447905;22;20023;-92
2023/09/27 18:13:46;;;;;;;20.67;14.32;;;;;;;;;;10463511;22;20039;-91
2023/09/27 18:17:53;;;;;;;26.98;17.60;;;;;;;;;;10394324;22;20098;-90
2023/09/27 18:21:58;;;;;;;25.73;15.15;;;;;;;;;;10444343;22;20023;-94
2023/09/27 18:26:05;;;;;;;27.08;14.80;;;;;;;;;;10449108;22;20029;-89
2023/09/27 18:30:11;;;;;;;26.10;15.88;;;;;;;;;;10458879;22;20386;-92
2023/09/27 18:34:16;;;;;;;26.23;15.90;;;;;;;;;;10457660;22;20019;-93
2023/09/27 18:38:19;;;;;;;31.13;17.63;;;;;;;;;;10440778;22;20015;-90
2023/09/27 18:42:28;;;;;;;40.80;20.85;;;;;;;;;;10442885;22;20019;-91
2023/09/27 18:46:33;;;;;;;37.47;19.88;;;;;;;;;;10458500;22;20022;-92
2023/09/27 18:50:42;;;;;;;35.10;19.98;;;;;;;;;;10442727;22;20015;-92
2023/09/27 18:54:47;;;;;;;32.90;19.65;;;;;;;;;;10459537;22;20355;-93
2023/09/27 18:58:58;;;;;;;31.17;18.67;;;;;;;;;;10456753;22;20023;-86
2023/09/27 19:03:05;;;;;;;33.50;19.58;;;;;;;;;;10495231;22;20019;-87
2023/09/27 19:07:11;;;;;;;38.67;21.30;;;;;;;;;;10496324;22;20461;-92
2023/09/27 19:11:20;;;;;;;33.30;20.67;;;;;;;;;;10494576;22;20165;-91
2023/09/27 19:15:26;;;;;;;31.33;19.63;;;;;;;;;;10418030;22;20027;-89
2023/09/27 19:19:31;;;;;;;36.70;21.48;;;;;;;;;;10486618;22;20355;-89
2023/09/27 19:23:35;;;;;;;37.47;21.00;;;;;;;;;;10441584;22;20093;-93
2023/09/27 19:27:40;;;;;;;39.55;20.85;;;;;;;;;;10440311;22;20027;-91
2023/09/27 19:31:47;;;;;;;37.45;21.70;;;;;;;;;;10457772;22;20019;-92
2023/09/27 19:35:51;;;;;;;48.08;23.63;;;;;;;;;;10458256;22;20070;-91
2023/09/27 19:39:56;;;;;;;43.33;21.92;;;;;;;;;;10439907;22;20019;-92
2023/09/27 19:44:00;;;;;;;41.30;21.50;;;;;;;;;;10440454;22;20107;-92
2023/09/27 19:48:07;;;;;;;43.10;23.33;;;;;;;;;;10440040;22;20023;-93
2023/09/27 19:52:12;;;;;;;45.80;24.30;;;;;;;;;;10439889;22;20358;-91
2023/09/27 19:56:16;;;;;;;51.13;24.95;;;;;;;;;;10440007;22;20042;-91
2023/09/27 20:00:20;;;;;;;48.22;23.70;;;;;;;;;;10362667;22;20027;-90
2023/09/27 20:04:28;;;;;;;54.10;23.33;;;;;;;;;;10439931;22;20023;-89
2023/09/27 20:08:32;;;;;;;47.00;22.65;;;;;;;;;;10439224;22;20335;-92
2023/09/27 20:12:36;;;;;;;47.90;22.90;;;;;;;;;;10438883;22;20021;-89
2023/09/27 20:16:40;;;;;;;48.30;23.15;;;;;;;;;;10439184;22;20019;-91
2023/09/27 20:20:47;;;;;;;55.85;25.13;;;;;;;;;;10439002;22;20019;-92
2023/09/27 20:24:50;;;;;;;42.85;21.92;;;;;;;;;;10450977;22;20090;-89
2023/09/27 20:28:54;;;;;;;45.47;20.92;;;;;;;;;;10438952;22;20019;-92
2023/09/27 20:32:58;;;;;;;43.42;21.05;;;;;;;;;;10439024;22;20068;-87
2023/09/27 20:37:02;;;;;;;44.33;21.10;;;;;;;;;;10439096;22;20015;-91
2023/09/27 20:41:05;;;;;;;46.15;22.15;;;;;;;;;;10438820;22;20344;-91
2023/09/27 20:45:10;;;;;;;55.83;21.77;;;;;;;;;;10439004;22;20065;-92
2023/09/27 20:49:13;;;;;;;46.20;22.58;;;;;;;;;;10438758;22;20086;-90
2023/09/27 20:53:17;;;;;;;45.17;22.02;;;;;;;;;;10438859;22;20090;-92
2023/09/27 20:57:20;;;;;;;57.33;23.08;;;;;;;;;;10438619;22;20098;-88
2023/09/27 21:01:29;;;;;;;54.72;21.40;;;;;;;;;;10438534;22;20016;-90
2023/09/27 21:05:33;;;;;;;51.53;23.85;;;;;;;;;;10455639;22;20019;-91
2023/09/27 21:09:37;;;;;;;54.97;23.17;;;;;;;;;;10438572;22;20015;-91
2023/09/27 21:13:40;;;;;;;51.97;21.08;;;;;;;;;;10438552;22;20431;-88
2023/09/27 21:17:43;;;;;;;51.45;22.25;;;;;;;;;;10438711;22;20026;-90
2023/09/27 21:21:46;;;;;;;48.67;22.13;;;;;;;;;;10438575;22;20043;-88
2023/09/27 21:25:50;;;;;;;56.45;23.13;;;;;;;;;;10438318;22;20463;-90
2023/09/27 21:29:54;;;;;;;55.22;21.17;;;;;;;;;;10438363;22;20035;-90
2023/09/27 21:33:57;;;;;;;52.42;22.20;;;;;;;;;;10440694;22;20090;-91
2023/09/27 21:38:00;;;;;;;51.17;21.58;;;;;;;;;;10441968;22;20536;-91
2023/09/27 21:42:05;;;;;;;57.35;23.45;;;;;;;;;;10442147;22;20090;-92
2023/09/27 21:46:16;;;;;;;57.33;23.88;;;;;;;;;;10441724;22;20385;-92
2023/09/27 21:50:19;;;;;;;59.30;24.50;;;;;;;;;;10458775;22;20090;-90
2023/09/27 21:54:22;;;;;;;52.22;21.25;;;;;;;;;;10441642;22;20102;-89
2023/09/27 21:58:26;;;;;;;53.65;21.30;;;;;;;;;;10441707;22;20015;-93
2023/09/27 22:02:29;;;;;;;53.17;21.85;;;;;;;;;;10441493;22;20444;-92
2023/09/27 22:06:32;;;;;;;63.50;23.42;;;;;;;;;;10441562;22;20042;-88
2023/09/27 22:10:42;;;;;;;52.03;23.50;;;;;;;;;;10440441;22;20094;-91
2023/09/27 22:14:46;;;;;;;52.22;22.55;;;;;;;;;;10458569;22;20041;-90
2023/09/27 22:18:50;;;;;;;55.83;22.60;;;;;;;;;;10437788;22;20015;-91
2023/09/27 22:22:53;;;;;;;50.33;20.00;;;;;;;;;;10441051;22;20047;-91
2023/09/27 22:26:57;;;;;;;56.50;22.55;;;;;;;;;;10438666;22;20027;-91
2023/09/27 22:31:01;;;;;;;54.42;21.88;;;;;;;;;;10440572;22;20037;-92
2023/09/27 22:35:19;;;;;;;54.65;21.25;;;;;;;;;;10439919;22;20667;-88
2023/09/27 22:39:22;;;;;;;53.35;20.80;;;;;;;;;;10457677;22;20447;-89
2023/09/27 22:43:25;;;;;;;45.10;21.13;;;;;;;;;;10439314;22;20145;-89
2023/09/27 22:47:29;;;;;;;51.50;20.63;;;;;;;;;;10440232;22;20114;-88
2023/09/27 22:51:32;;;;;;;50.35;20.48;;;;;;;;;;10439654;22;20019;-89
2023/09/27 22:55:35;;;;;;;57.08;20.52;;;;;;;;;;10439624;22;20574;-89
2023/09/27 22:59:38;;;;;;;56.72;20.63;;;;;;;;;;10438427;22;20051;-90
2023/09/27 23:03:44;;;;;;;50.67;20.35;;;;;;;;;;10438883;22;20352;-90
2023/09/27 23:07:46;;;;;;;51.17;20.55;;;;;;;;;;10439164;22;20046;-91
2023/09/27 23:12:10;;;;;;;55.20;20.38;;;;;;;;;;10439206;22;20027;-88
2023/09/27 23:16:33;;;;;;;55.85;20.27;;;;;;;;;;10456238;22;20098;-91
2023/09/27 23:20:36;;;;;;;;;;;;;;;;;;10457203;22;20015;-89
2023/09/27 23:24:42;;;;;;;48.97;18.45;;;;;;;;;;10439808;22;19949;-91
2023/09/27 23:29:23;;;;;;;48.08;19.33;;;;;;;;;;10456589;22;20023;-91
2023/09/27 23:33:09;;;;;;;56.60;20.80;;;;;;;;;;10440771;22;20035;-91
2023/09/27 23:37:13;;;;;;;63.92;23.15;;;;;;;;;;10439419;22;20381;-87
2023/09/27 23:41:16;;;;;;;58.92;22.63;;;;;;;;;;10439723;22;20355;-89
2023/09/27 23:45:20;;;;;;;58.15;20.70;;;;;;;;;;10439351;22;20019;-89
2023/09/27 23:49:22;;;;;;;63.83;20.75;;;;;;;;;;10439757;22;20434;-90
2023/09/27 23:53:27;;;;;;;64.85;22.42;;;;;;;;;;10439705;22;20344;-90
2023/09/27 23:57:30;;;;;;;56.83;22.42;;;;;;;;;;10439046;22;20015;-90
